Time,TemperatureF,DewpointF,PressureIn,WindDirection,WindDirectionDegrees,WindSpeedMPH,WindSpeedGustMPH,Humidity,HourlyPrecipIn,Conditions,Clouds,dailyrainin,SoftwareType,DateUTC
2013-05-03 00:03:00,55.0,44.0,30.38,South,173,2.0,6.0,66,0.00,,,0.00,,2013-05-03 04:03:00,
2013-05-03 00:13:00,55.0,44.0,30.38,South,173,2.0,6.0,66,0.00,,,0.00,,2013-05-03 04:13:00,
2013-05-03 00:23:00,55.0,44.0,30.38,South,173,2.0,6.0,66,0.00,,,0.00,,2013-05-03 04:23:00,
2013-05-03 00:32:00,55.0,44.0,30.38,South,173,2.0,6.0,66,0.00,,,0.00,,2013-05-03 04:32:00,
2013-05-03 00:43:00,55.0,44.0,30.38,South,173,2.0,6.0,66,0.00,,,0.00,,2013-05-03 04:43:00,
2013-05-03 01:22:00,55.0,47.0,30.42,SSE,149,7.0,10.0,74,0.00,,,0.00,,2013-05-03 05:22:00,
2013-05-03 01:32:00,54.0,47.0,30.42,ESE,121,3.0,7.0,76,0.00,,,0.00,,2013-05-03 05:32:00,
2013-05-03 01:42:00,54.0,47.0,30.42,ESE,121,3.0,7.0,76,0.00,,,0.00,,2013-05-03 05:42:00,
2013-05-03 01:52:00,54.0,47.0,30.42,ESE,106,4.0,11.0,78,0.00,,,0.00,,2013-05-03 05:52:00,
2013-05-03 02:02:00,53.0,47.0,30.42,ESE,111,5.0,8.0,80,0.00,,,0.00,,2013-05-03 06:02:00,
2013-05-03 02:12:00,53.0,47.0,30.42,ESE,111,5.0,8.0,80,0.00,,,0.00,,2013-05-03 06:12:00,
2013-05-03 02:21:00,53.0,47.0,30.42,East,86,4.0,7.0,79,0.00,,,0.00,,2013-05-03 06:21:00,
2013-05-03 02:32:00,52.0,46.0,30.45,WNW,282,2.0,6.0,79,0.00,,,0.00,,2013-05-03 06:32:00,
2013-05-03 02:42:00,52.0,46.0,30.45,WNW,282,2.0,6.0,79,0.00,,,0.00,,2013-05-03 06:42:00,
2013-05-03 02:52:00,52.0,46.0,30.42,ESE,107,5.0,10.0,80,0.00,,,0.00,,2013-05-03 06:52:00,
2013-05-03 03:01:00,51.0,45.0,30.45,SE,127,2.0,8.0,79,0.00,,,0.00,,2013-05-03 07:01:00,
2013-05-03 03:11:00,51.0,45.0,30.45,SE,127,2.0,8.0,79,0.00,,,0.00,,2013-05-03 07:11:00,
2013-05-03 03:21:00,51.0,45.0,30.45,ESE,103,5.0,11.0,80,0.00,,,0.00,,2013-05-03 07:21:00,
2013-05-03 03:30:00,51.0,45.0,30.45,ESE,115,7.0,11.0,80,0.00,,,0.00,,2013-05-03 07:30:00,
2013-05-03 03:32:00,51.0,45.0,30.45,ESE,102,4.0,6.0,79,0.00,,,0.00,,2013-05-03 07:32:00,
2013-05-03 03:42:00,51.0,45.0,30.45,ESE,102,4.0,6.0,79,0.00,,,0.00,,2013-05-03 07:42:00,
2013-05-03 03:52:00,51.0,45.0,30.45,ESE,115,7.0,11.0,80,0.00,,,0.00,,2013-05-03 07:52:00,
2013-05-03 04:02:00,51.0,45.0,30.45,ESE,115,7.0,11.0,80,0.00,,,0.00,,2013-05-03 08:02:00,
2013-05-03 04:12:00,51.0,45.0,30.45,ESE,115,7.0,11.0,80,0.00,,,0.00,,2013-05-03 08:12:00,
2013-05-03 04:21:00,51.0,45.0,30.45,ESE,115,7.0,11.0,80,0.00,,,0.00,,2013-05-03 08:21:00,
2013-05-03 05:01:00,49.0,42.0,30.42,ENE,63,1.0,5.0,77,0.00,,,0.00,,2013-05-03 09:01:00,
2013-05-03 05:12:00,49.0,42.0,30.42,ENE,63,1.0,5.0,77,0.00,,,0.00,,2013-05-03 09:12:00,
2013-05-03 05:21:00,48.0,41.0,30.45,East,85,2.0,5.0,76,0.00,,,0.00,,2013-05-03 09:21:00,
2013-05-03 05:33:00,48.0,40.0,30.45,ESE,104,4.0,7.0,74,0.00,,,0.00,,2013-05-03 09:33:00,
2013-05-03 05:42:00,48.0,40.0,30.45,ESE,104,4.0,7.0,74,0.00,,,0.00,,2013-05-03 09:42:00,
2013-05-03 05:53:00,48.0,40.0,30.45,ESE,104,4.0,7.0,74,0.00,,,0.00,,2013-05-03 09:53:00,
2013-05-03 06:00:00,46.0,36.0,30.48,North,5,1.0,3.0,68,0.00,,,0.00,,2013-05-03 10:00:00,
2013-05-03 06:03:00,47.0,37.0,30.45,East,88,2.0,6.0,69,0.00,,,0.00,,2013-05-03 10:03:00,
2013-05-03 06:12:00,47.0,37.0,30.45,East,88,2.0,6.0,69,0.00,,,0.00,,2013-05-03 10:12:00,
2013-05-03 06:22:00,46.0,36.0,30.48,North,5,1.0,3.0,68,0.00,,,0.00,,2013-05-03 10:22:00,
2013-05-03 06:32:00,46.0,36.0,30.48,North,5,1.0,3.0,68,0.00,,,0.00,,2013-05-03 10:32:00,
2013-05-03 06:42:00,46.0,36.0,30.48,North,5,1.0,3.0,68,0.00,,,0.00,,2013-05-03 10:42:00,
2013-05-03 06:52:00,46.0,36.0,30.48,North,5,1.0,3.0,68,0.00,,,0.00,,2013-05-03 10:52:00,
2013-05-03 07:22:00,49.0,37.0,30.48,East,92,3.0,4.0,63,0.00,,,0.00,,2013-05-03 11:22:00,
2013-05-03 07:32:00,50.0,38.0,30.48,East,93,4.0,6.0,62,0.00,,,0.00,,2013-05-03 11:32:00,
2013-05-03 07:42:00,50.0,38.0,30.48,East,93,4.0,6.0,62,0.00,,,0.00,,2013-05-03 11:42:00,
2013-05-03 07:52:00,51.0,38.0,30.48,East,94,4.0,6.0,62,0.00,,,0.00,,2013-05-03 11:52:00,
2013-05-03 08:00:00,54.0,40.0,30.48,ESE,111,5.0,8.0,59,0.00,,,0.00,,2013-05-03 12:00:00,
2013-05-03 08:02:00,52.0,39.0,30.48,ESE,102,4.0,6.0,60,0.00,,,0.00,,2013-05-03 12:02:00,
2013-05-03 08:11:00,52.0,39.0,30.48,ESE,102,4.0,6.0,60,0.00,,,0.00,,2013-05-03 12:11:00,
2013-05-03 08:21:00,54.0,40.0,30.48,ESE,111,5.0,8.0,59,0.00,,,0.00,,2013-05-03 12:21:00,
2013-05-03 08:32:00,54.0,40.0,30.48,ESE,111,5.0,8.0,59,0.00,,,0.00,,2013-05-03 12:32:00,
2013-05-03 08:42:00,54.0,40.0,30.48,ESE,111,5.0,8.0,59,0.00,,,0.00,,2013-05-03 12:42:00,
2013-05-03 08:52:00,54.0,40.0,30.48,ESE,111,5.0,8.0,59,0.00,,,0.00,,2013-05-03 12:52:00,
2013-05-03 10:00:00,60.0,43.0,30.48,SE,139,3.0,6.0,53,0.00,,,0.00,,2013-05-03 14:00:00,
2013-05-03 10:02:00,60.0,43.0,30.48,SSE,158,3.0,8.0,54,0.00,,,0.00,,2013-05-03 14:02:00,
2013-05-03 10:11:00,60.0,43.0,30.48,SSE,158,3.0,8.0,54,0.00,,,0.00,,2013-05-03 14:11:00,
2013-05-03 10:22:00,60.0,43.0,30.48,SE,139,3.0,6.0,53,0.00,,,0.00,,2013-05-03 14:22:00,
2013-05-03 10:32:00,60.0,43.0,30.48,SE,139,3.0,6.0,53,0.00,,,0.00,,2013-05-03 14:32:00,
2013-05-03 10:42:00,60.0,43.0,30.48,SE,139,3.0,6.0,53,0.00,,,0.00,,2013-05-03 14:42:00,
2013-05-03 10:52:00,60.0,43.0,30.48,SE,139,3.0,6.0,53,0.00,,,0.00,,2013-05-03 14:52:00,
2013-05-03 11:32:00,63.0,44.0,30.45,SSE,151,5.0,12.0,49,0.00,,,0.00,,2013-05-03 15:32:00,
2013-05-03 11:43:00,63.0,44.0,30.45,SSE,151,5.0,12.0,49,0.00,,,0.00,,2013-05-03 15:43:00,
2013-05-03 11:53:00,64.0,44.0,30.42,SSE,153,7.0,11.0,49,0.00,,,0.00,,2013-05-03 15:53:00,
2013-05-03 12:03:00,65.0,46.0,30.42,SE,126,4.0,15.0,50,0.00,,,0.00,,2013-05-03 16:03:00,
2013-05-03 12:13:00,65.0,46.0,30.42,SE,126,4.0,15.0,50,0.00,,,0.00,,2013-05-03 16:13:00,
2013-05-03 12:23:00,67.0,47.0,30.45,East,88,3.0,10.0,49,0.00,,,0.00,,2013-05-03 16:23:00,
2013-05-03 12:33:00,66.0,46.0,30.45,SE,134,4.0,8.0,49,0.00,,,0.00,,2013-05-03 16:33:00,
2013-05-03 12:42:00,66.0,46.0,30.45,SE,134,4.0,8.0,49,0.00,,,0.00,,2013-05-03 16:42:00,
2013-05-03 12:52:00,67.0,47.0,30.45,SE,146,2.0,9.0,49,0.00,,,0.00,,2013-05-03 16:52:00,
2013-05-03 13:02:00,67.0,48.0,30.45,SE,135,3.0,11.0,50,0.00,,,0.00,,2013-05-03 17:02:00,
2013-05-03 13:12:00,67.0,48.0,30.45,SE,135,3.0,11.0,50,0.00,,,0.00,,2013-05-03 17:12:00,
2013-05-03 13:23:00,67.0,46.0,30.45,East,89,4.0,8.0,46,0.00,,,0.00,,2013-05-03 17:23:00,
2013-05-03 13:32:00,68.0,47.0,30.42,East,95,4.0,8.0,47,0.00,,,0.00,,2013-05-03 17:32:00,
2013-05-03 13:42:00,68.0,47.0,30.42,East,95,4.0,8.0,47,0.00,,,0.00,,2013-05-03 17:42:00,
2013-05-03 13:52:00,69.0,47.0,30.42,SE,125,4.0,9.0,46,0.00,,,0.00,,2013-05-03 17:52:00,
2013-05-03 14:01:00,68.0,47.0,30.42,East,94,4.0,9.0,47,0.00,,,0.00,,2013-05-03 18:01:00,
2013-05-03 14:12:00,68.0,47.0,30.42,East,94,4.0,9.0,47,0.00,,,0.00,,2013-05-03 18:12:00,
2013-05-03 14:21:00,69.0,47.0,30.42,East,94,4.0,11.0,45,0.00,,,0.00,,2013-05-03 18:21:00,
2013-05-03 14:32:00,69.0,47.0,30.42,SE,137,4.0,10.0,45,0.00,,,0.00,,2013-05-03 18:32:00,
2013-05-03 14:42:00,69.0,47.0,30.42,SE,137,4.0,10.0,45,0.00,,,0.00,,2013-05-03 18:42:00,
2013-05-03 14:52:00,69.0,48.0,30.38,SE,141,6.0,11.0,47,0.00,,,0.00,,2013-05-03 18:52:00,
2013-05-03 15:01:00,69.0,48.0,30.38,SE,141,6.0,11.0,47,0.00,,,0.00,,2013-05-03 19:01:00,
2013-05-03 15:11:00,69.0,48.0,30.38,SE,141,6.0,11.0,47,0.00,,,0.00,,2013-05-03 19:11:00,
2013-05-03 15:21:00,68.0,46.0,30.38,SSE,166,5.0,9.0,46,0.00,,,0.00,,2013-05-03 19:21:00,
2013-05-03 15:32:00,67.0,45.0,30.38,South,169,6.0,11.0,45,0.00,,,0.00,,2013-05-03 19:32:00,
2013-05-03 15:42:00,67.0,45.0,30.38,South,169,6.0,11.0,45,0.00,,,0.00,,2013-05-03 19:42:00,
2013-05-03 15:52:00,67.0,44.0,30.38,SE,146,7.0,11.0,44,0.00,,,0.00,,2013-05-03 19:52:00,
2013-05-03 16:00:00,68.0,45.0,30.38,SE,127,3.0,10.0,43,0.00,,,0.00,,2013-05-03 20:00:00,
2013-05-03 16:02:00,68.0,45.0,30.38,SE,142,5.0,11.0,43,0.00,,,0.00,,2013-05-03 20:02:00,
2013-05-03 16:12:00,68.0,45.0,30.38,SE,142,5.0,11.0,43,0.00,,,0.00,,2013-05-03 20:12:00,
2013-05-03 16:21:00,68.0,45.0,30.38,SE,127,3.0,10.0,43,0.00,,,0.00,,2013-05-03 20:21:00,
2013-05-03 16:32:00,68.0,45.0,30.38,SE,127,3.0,10.0,43,0.00,,,0.00,,2013-05-03 20:32:00,
2013-05-03 16:42:00,68.0,45.0,30.38,SE,127,3.0,10.0,43,0.00,,,0.00,,2013-05-03 20:42:00,
2013-05-03 16:52:00,68.0,45.0,30.38,SE,127,3.0,10.0,43,0.00,,,0.00,,2013-05-03 20:52:00,
2013-05-03 17:33:00,66.0,43.0,30.38,ESE,116,7.0,10.0,43,0.00,,,0.00,,2013-05-03 21:33:00,
2013-05-03 17:43:00,66.0,43.0,30.38,ESE,116,7.0,10.0,43,0.00,,,0.00,,2013-05-03 21:43:00,
2013-05-03 17:53:00,66.0,43.0,30.38,ESE,116,7.0,10.0,43,0.00,,,0.00,,2013-05-03 21:53:00,
2013-05-03 18:03:00,66.0,43.0,30.38,ESE,116,7.0,10.0,43,0.00,,,0.00,,2013-05-03 22:03:00,
2013-05-03 18:13:00,66.0,43.0,30.38,ESE,116,7.0,10.0,43,0.00,,,0.00,,2013-05-03 22:13:00,
2013-05-03 18:32:00,61.0,40.0,30.38,SE,125,7.0,13.0,45,0.00,,,0.00,,2013-05-03 22:32:00,
2013-05-03 18:42:00,61.0,40.0,30.38,SE,125,7.0,13.0,45,0.00,,,0.00,,2013-05-03 22:42:00,
2013-05-03 18:52:00,61.0,40.0,30.38,SE,125,7.0,13.0,45,0.00,,,0.00,,2013-05-03 22:52:00,
2013-05-03 19:02:00,61.0,40.0,30.38,SE,125,7.0,13.0,45,0.00,,,0.00,,2013-05-03 23:02:00,
2013-05-03 19:11:00,61.0,40.0,30.38,SE,125,7.0,13.0,45,0.00,,,0.00,,2013-05-03 23:11:00,
2013-05-03 19:32:00,57.0,38.0,30.38,South,179,4.0,8.0,48,0.00,,,0.00,,2013-05-03 23:32:00,
2013-05-03 19:41:00,57.0,38.0,30.38,South,179,4.0,8.0,48,0.00,,,0.00,,2013-05-03 23:41:00,
2013-05-03 19:52:00,57.0,38.0,30.38,South,179,4.0,8.0,48,0.00,,,0.00,,2013-05-03 23:52:00,
2013-05-03 20:01:00,57.0,38.0,30.38,South,179,4.0,8.0,48,0.00,,,0.00,,2013-05-04 00:01:00,
2013-05-03 20:11:00,57.0,38.0,30.38,South,179,4.0,8.0,48,0.00,,,0.00,,2013-05-04 00:11:00,
2013-05-03 21:01:00,53.0,36.0,30.38,ESE,118,1.0,3.0,52,0.00,,,0.00,,2013-05-04 01:01:00,
2013-05-03 21:11:00,53.0,36.0,30.38,ESE,118,1.0,3.0,52,0.00,,,0.00,,2013-05-04 01:11:00,
2013-05-03 21:21:00,52.0,36.0,30.38,SE,139,0.0,4.0,54,0.00,,,0.00,,2013-05-04 01:21:00,
2013-05-03 21:32:00,49.0,34.0,30.35,NE,44,0.0,2.0,55,0.00,,,0.00,,2013-05-04 01:32:00,
2013-05-03 21:42:00,49.0,34.0,30.35,NE,44,0.0,2.0,55,0.00,,,0.00,,2013-05-04 01:42:00,
2013-05-03 21:52:00,49.0,34.0,30.38,North,351,1.0,2.0,57,0.00,,,0.00,,2013-05-04 01:52:00,
2013-05-03 22:02:00,49.0,34.0,30.38,North,351,1.0,2.0,57,0.00,,,0.00,,2013-05-04 02:02:00,
2013-05-03 22:11:00,49.0,34.0,30.38,North,351,1.0,2.0,57,0.00,,,0.00,,2013-05-04 02:11:00,
2013-05-03 22:21:00,48.0,35.0,30.38,NW,326,2.0,3.0,61,0.00,,,0.00,,2013-05-04 02:21:00,
2013-05-03 22:32:00,47.0,35.0,30.38,NNW,336,1.0,2.0,62,0.00,,,0.00,,2013-05-04 02:32:00,
2013-05-03 22:42:00,47.0,35.0,30.38,NNW,336,1.0,2.0,62,0.00,,,0.00,,2013-05-04 02:42:00,
2013-05-03 22:52:00,47.0,35.0,30.38,North,8,0.0,2.0,62,0.00,,,0.00,,2013-05-04 02:52:00,
2013-05-03 23:02:00,49.0,37.0,30.38,ESE,122,0.0,5.0,63,0.00,,,0.00,,2013-05-04 03:02:00,
2013-05-03 23:11:00,49.0,37.0,30.38,ESE,122,0.0,5.0,63,0.00,,,0.00,,2013-05-04 03:11:00,
2013-05-03 23:22:00,49.0,37.0,30.35,SE,124,2.0,5.0,64,0.00,,,0.00,,2013-05-04 03:22:00,
2013-05-03 23:33:00,49.0,38.0,30.38,ESE,112,2.0,4.0,65,0.00,,,0.00,,2013-05-04 03:33:00,
2013-05-03 23:43:00,49.0,38.0,30.38,ESE,112,2.0,4.0,65,0.00,,,0.00,,2013-05-04 03:43:00,
2013-05-03 23:53:00,48.0,37.0,30.38,SE,132,1.0,3.0,65,0.00,,,0.00,,2013-05-04 03:53:00,